createdAt,value
2018-05-25T00:00:44.671Z,16.15
2018-05-25T00:01:44.118Z,16.15
2018-05-25T00:02:44.456Z,16.15
2018-05-25T00:03:43.955Z,16.13
2018-05-25T00:04:44.596Z,16.13
2018-05-25T00:05:44.030Z,16.12
2018-05-25T00:06:44.627Z,16.12
2018-05-25T00:07:44.105Z,16.13
2018-05-25T00:08:44.683Z,16.12
2018-05-25T00:09:44.091Z,16.09
2018-05-25T00:10:44.363Z,16.09
2018-05-25T00:12:27.724Z,16.09
2018-05-25T00:13:28.462Z,16.09
2018-05-25T00:14:28.344Z,16.05
2018-05-25T00:15:28.127Z,16.08
2018-05-25T00:16:28.195Z,16.08
2018-05-25T00:17:27.872Z,16.08
2018-05-25T00:18:28.372Z,16.08
2018-05-25T00:19:28.145Z,16.08
2018-05-25T00:20:49.210Z,16.05
2018-05-25T00:22:33.438Z,16.05
2018-05-25T00:23:33.048Z,16.02
2018-05-25T00:24:55.135Z,16.04
2018-05-25T00:25:55.917Z,16.02
2018-05-25T00:26:55.719Z,16.00
2018-05-25T00:27:55.672Z,15.98
2018-05-25T00:28:55.305Z,15.98
2018-05-25T00:29:55.153Z,15.98
2018-05-25T00:30:55.636Z,15.98
2018-05-25T00:31:54.978Z,16.00
2018-05-25T00:32:55.651Z,15.97
2018-05-25T00:33:54.988Z,15.98
2018-05-25T00:34:55.565Z,15.97
2018-05-25T00:35:55.211Z,15.94
2018-05-25T00:37:16.908Z,15.94
2018-05-25T00:38:17.379Z,15.92
2018-05-25T00:39:18.026Z,15.92
2018-05-25T00:40:17.579Z,15.91
2018-05-25T00:41:16.998Z,15.91
2018-05-25T00:42:17.654Z,15.90
2018-05-25T00:43:38.727Z,15.88
2018-05-25T00:44:39.156Z,15.86
2018-05-25T00:46:00.627Z,15.83
2018-05-25T00:47:01.178Z,15.84
2018-05-25T00:48:02.375Z,15.84
2018-05-25T00:49:00.802Z,15.84
2018-05-25T00:50:01.468Z,15.84
2018-05-25T00:51:01.108Z,15.83
2018-05-25T00:52:01.473Z,15.83
2018-05-25T00:53:00.900Z,15.83
2018-05-25T00:54:02.159Z,15.83
2018-05-25T00:55:01.178Z,15.83
2018-05-25T00:56:00.976Z,15.83
2018-05-25T00:57:01.905Z,15.83
2018-05-25T00:58:01.829Z,15.82
2018-05-25T00:59:22.893Z,15.82
2018-05-25T01:00:47.281Z,15.83
2018-05-25T01:01:46.712Z,15.83
2018-05-25T01:02:47.491Z,15.84
2018-05-25T01:03:47.360Z,15.86
2018-05-25T01:04:46.869Z,15.86
2018-05-25T01:05:46.393Z,15.88
2018-05-25T01:06:46.806Z,15.88
2018-05-25T01:07:46.106Z,15.90
2018-05-25T01:08:46.971Z,15.91
2018-05-25T01:09:46.216Z,15.91
2018-05-25T01:10:46.863Z,15.91
2018-05-25T01:11:46.544Z,15.91
2018-05-25T01:12:47.289Z,15.91
2018-05-25T01:13:46.523Z,15.91
2018-05-25T01:14:47.149Z,15.90
2018-05-25T01:15:46.640Z,15.90
2018-05-25T01:16:48.397Z,15.92
2018-05-25T01:17:47.304Z,15.91
2018-05-25T01:18:46.572Z,15.91
2018-05-25T01:19:47.043Z,15.91
2018-05-25T01:20:47.295Z,15.91
2018-05-25T01:21:46.759Z,15.91
2018-05-25T01:22:47.269Z,15.90
2018-05-25T01:23:47.718Z,15.90
2018-05-25T01:24:48.477Z,15.90
2018-05-25T01:25:47.114Z,15.88
2018-05-25T01:26:46.559Z,15.90
2018-05-25T01:27:47.305Z,15.91
2018-05-25T01:28:46.871Z,15.91
2018-05-25T01:29:46.366Z,15.92
2018-05-25T01:30:46.783Z,15.91
2018-05-25T01:32:08.096Z,15.91
2018-05-25T01:33:08.400Z,15.90
2018-05-25T01:34:08.994Z,15.86
2018-05-25T01:35:08.277Z,15.86
2018-05-25T01:36:08.940Z,15.86
2018-05-25T01:37:08.393Z,15.84
2018-05-25T01:38:08.753Z,15.86
2018-05-25T01:39:09.128Z,15.88
2018-05-25T01:40:30.025Z,15.90
2018-05-25T01:41:30.253Z,15.90
2018-05-25T01:42:31.044Z,15.86
2018-05-25T01:43:51.768Z,15.86
2018-05-25T01:44:52.121Z,15.86
2018-05-25T01:45:52.887Z,15.88
2018-05-25T01:46:52.629Z,15.88
2018-05-25T01:47:52.425Z,15.88
2018-05-25T01:49:13.318Z,15.84
2018-05-25T01:50:13.854Z,15.86
2018-05-25T01:51:13.076Z,15.86
2018-05-25T01:52:14.105Z,15.86
2018-05-25T01:53:36.023Z,15.86
2018-05-25T01:54:36.624Z,15.84
2018-05-25T01:56:21.500Z,15.84
2018-05-25T01:57:43.714Z,15.84
2018-05-25T01:58:43.428Z,15.86
2018-05-25T01:59:43.941Z,15.86
2018-05-25T02:00:43.292Z,15.86
2018-05-25T02:01:43.811Z,15.86
2018-05-25T02:02:43.418Z,15.86
2018-05-25T02:03:44.449Z,15.86
2018-05-25T02:04:44.571Z,15.84
2018-05-25T02:05:44.262Z,15.86
2018-05-25T02:06:43.846Z,15.83
2018-05-25T02:07:43.460Z,15.83
2018-05-25T02:08:44.334Z,15.83
2018-05-25T02:09:44.044Z,15.82
2018-05-25T02:10:43.776Z,15.83
2018-05-25T02:11:43.342Z,15.82
2018-05-25T02:12:44.101Z,15.80
2018-05-25T02:13:43.486Z,15.83
2018-05-25T02:14:43.969Z,15.82
2018-05-25T02:15:43.773Z,15.80
2018-05-25T02:16:43.675Z,15.82
2018-05-25T02:17:43.618Z,15.80
2018-05-25T02:18:43.555Z,15.82
2018-05-25T02:19:44.088Z,15.77
2018-05-25T02:20:43.713Z,15.77
2018-05-25T02:22:04.973Z,15.77
2018-05-25T02:23:05.903Z,15.77
2018-05-25T02:24:05.703Z,15.76
2018-05-25T02:25:05.607Z,15.75
2018-05-25T02:26:05.391Z,15.75
2018-05-25T02:27:04.907Z,15.73
2018-05-25T02:28:05.652Z,15.75
2018-05-25T02:29:04.987Z,15.73
2018-05-25T02:30:05.813Z,15.73
2018-05-25T02:31:05.491Z,15.72
2018-05-25T02:32:05.216Z,15.72
2018-05-25T02:33:05.643Z,15.73
2018-05-25T02:35:09.193Z,15.72
2018-05-25T02:36:31.013Z,15.73
2018-05-25T02:37:31.339Z,15.72
2018-05-25T02:39:14.950Z,15.72
2018-05-25T02:40:15.777Z,15.70
2018-05-25T02:41:15.583Z,15.70
2018-05-25T02:42:15.439Z,15.70
2018-05-25T02:43:15.110Z,15.70
2018-05-25T02:44:15.056Z,15.70
2018-05-25T02:45:15.592Z,15.68
2018-05-25T02:46:15.170Z,15.68
2018-05-25T02:47:37.979Z,15.68
2018-05-25T02:48:37.673Z,15.68
2018-05-25T02:49:37.137Z,15.68
2018-05-25T02:50:38.031Z,15.68
2018-05-25T02:51:38.140Z,15.68
2018-05-25T02:52:38.078Z,15.67
2018-05-25T02:53:37.565Z,15.65
2018-05-25T02:54:37.304Z,15.67
2018-05-25T02:55:59.843Z,15.67
2018-05-25T02:57:00.429Z,15.65
2018-05-25T02:58:01.287Z,15.62
2018-05-25T02:58:59.995Z,15.62
2018-05-25T03:00:00.086Z,15.61
2018-05-25T03:01:00.253Z,15.59
2018-05-25T03:02:00.779Z,15.57
2018-05-25T03:03:00.300Z,15.58
2018-05-25T03:03:59.942Z,15.59
2018-05-25T03:05:01.780Z,15.58
2018-05-25T03:06:21.750Z,15.55
2018-05-25T03:07:24.595Z,15.55
2018-05-25T03:08:22.590Z,15.55
2018-05-25T03:09:22.500Z,15.54
2018-05-25T03:10:22.500Z,15.54
2018-05-25T03:11:22.469Z,15.54
2018-05-25T03:12:22.445Z,15.52
2018-05-25T03:13:22.380Z,15.54
2018-05-25T03:14:23.447Z,15.55
2018-05-25T03:15:23.491Z,15.55
2018-05-25T03:16:22.268Z,15.55
2018-05-25T03:17:21.760Z,15.57
2018-05-25T03:18:22.617Z,15.58
2018-05-25T03:19:22.255Z,15.57
2018-05-25T03:20:22.053Z,15.59
2018-05-25T03:21:22.598Z,15.61
2018-05-25T03:22:22.067Z,15.61
2018-05-25T03:23:44.225Z,15.61
2018-05-25T03:24:45.267Z,15.59
2018-05-25T03:25:44.893Z,15.61
2018-05-25T03:26:44.897Z,15.59
2018-05-25T03:27:44.617Z,15.59
2018-05-25T03:28:44.251Z,15.57
2018-05-25T03:29:43.789Z,15.58
2018-05-25T03:30:44.752Z,15.58
2018-05-25T03:31:44.363Z,15.57
2018-05-25T03:32:44.420Z,15.57
2018-05-25T03:33:53.019Z,15.58
2018-05-25T03:34:44.589Z,15.58
2018-05-25T03:35:44.303Z,15.58
2018-05-25T03:37:05.368Z,15.61
2018-05-25T03:38:06.265Z,15.62
2018-05-25T03:39:06.412Z,15.65
2018-05-25T03:40:07.034Z,15.67
2018-05-25T03:41:05.906Z,15.67
2018-05-25T03:42:27.455Z,15.68
2018-05-25T03:43:28.358Z,15.68
2018-05-25T03:44:28.157Z,15.70
2018-05-25T03:45:27.623Z,15.75
2018-05-25T03:46:28.161Z,15.75
2018-05-25T03:47:28.307Z,15.76
2018-05-25T03:48:28.077Z,15.77
2018-05-25T03:49:29.359Z,15.77
2018-05-25T03:50:27.842Z,15.77
2018-05-25T03:51:27.656Z,15.75
2018-05-25T03:52:27.293Z,15.77
2018-05-25T03:53:28.150Z,15.76
2018-05-25T03:54:27.922Z,15.79
2018-05-25T03:55:50.739Z,15.77
2018-05-25T03:56:51.342Z,15.79
2018-05-25T03:57:51.038Z,15.77
2018-05-25T03:58:51.047Z,15.80
2018-05-25T03:59:52.326Z,15.82
2018-05-25T04:00:50.852Z,15.82
2018-05-25T04:01:51.637Z,15.84
2018-05-25T04:03:34.617Z,15.84
2018-05-25T04:04:35.802Z,15.88
2018-05-25T04:05:35.294Z,15.86
2018-05-25T04:06:56.239Z,15.91
2018-05-25T04:07:56.997Z,15.91
2018-05-25T04:08:56.509Z,15.95
2018-05-25T04:09:57.265Z,15.95
2018-05-25T04:10:56.802Z,15.98
2018-05-25T04:11:56.498Z,16.02
2018-05-25T04:12:56.906Z,16.05
2018-05-25T04:13:56.487Z,16.05
2018-05-25T04:14:56.143Z,16.12
2018-05-25T04:15:56.798Z,16.12
2018-05-25T04:16:56.648Z,16.13
2018-05-25T04:17:56.827Z,16.10
2018-05-25T04:18:57.231Z,16.09
2018-05-25T04:19:57.477Z,16.09
2018-05-25T04:20:56.200Z,16.08
2018-05-25T04:21:57.180Z,16.10
2018-05-25T04:22:57.253Z,16.08
2018-05-25T04:23:57.317Z,16.05
2018-05-25T04:24:57.088Z,16.05
2018-05-25T04:25:56.635Z,16.08
2018-05-25T04:27:18.655Z,16.08
2018-05-25T04:28:19.133Z,16.10
2018-05-25T04:29:20.390Z,16.08
2018-05-25T04:30:41.298Z,16.05
2018-05-25T04:31:40.933Z,16.10
2018-05-25T04:32:41.382Z,16.13
2018-05-25T04:33:41.252Z,16.13
2018-05-25T04:34:41.014Z,16.09
2018-05-25T04:36:03.263Z,16.10
2018-05-25T04:37:03.968Z,16.13
2018-05-25T04:38:03.501Z,16.17
2018-05-25T04:39:04.526Z,16.21
2018-05-25T04:40:04.066Z,16.21
2018-05-25T04:41:03.799Z,16.17
2018-05-25T04:42:03.797Z,16.17
2018-05-25T04:43:03.643Z,16.20
2018-05-25T04:44:04.182Z,16.23
2018-05-25T04:45:04.851Z,16.21
2018-05-25T04:46:25.128Z,16.17
2018-05-25T04:47:26.062Z,16.21
2018-05-25T04:48:25.813Z,16.23
2018-05-25T04:49:25.484Z,16.20
2018-05-25T04:50:25.251Z,16.20
2018-05-25T04:51:25.320Z,16.21
2018-05-25T04:52:26.358Z,16.16
2018-05-25T04:53:46.787Z,16.16
2018-05-25T04:54:48.177Z,16.17
2018-05-25T04:55:47.196Z,16.15
2018-05-25T04:56:47.045Z,16.13
2018-05-25T04:57:47.040Z,16.12
2018-05-25T04:58:46.991Z,16.13
2018-05-25T04:59:46.644Z,16.12
2018-05-25T05:00:47.216Z,16.08
2018-05-25T05:01:47.138Z,16.08
2018-05-25T05:02:46.828Z,16.05
2018-05-25T05:03:48.862Z,16.02
2018-05-25T05:04:47.707Z,15.98
2018-05-25T05:05:48.009Z,15.94
2018-05-25T05:07:24.961Z,15.94
2018-05-25T05:08:23.649Z,15.94
2018-05-25T05:09:24.309Z,15.95
2018-05-25T05:10:24.399Z,15.94
2018-05-25T05:11:24.340Z,15.92
2018-05-25T05:12:24.085Z,15.92
2018-05-25T05:13:23.790Z,15.92
2018-05-25T05:14:48.570Z,15.94
2018-05-25T05:15:48.116Z,15.94
2018-05-25T05:16:49.051Z,15.98
2018-05-25T05:17:48.885Z,16.01
2018-05-25T05:18:48.393Z,16.02
2018-05-25T05:19:48.308Z,16.02
2018-05-25T05:20:48.158Z,16.02
2018-05-25T05:22:31.132Z,16.04
2018-05-25T05:23:32.029Z,16.12
2018-05-25T05:24:32.452Z,16.13
2018-05-25T05:25:31.890Z,16.17
2018-05-25T05:26:31.676Z,16.17
2018-05-25T05:27:31.222Z,16.21
2018-05-25T05:28:33.373Z,16.28
2018-05-25T05:29:31.260Z,16.32
2018-05-25T05:30:32.316Z,16.32
2018-05-25T05:31:31.891Z,16.33
2018-05-25T05:32:31.784Z,16.33
2018-05-25T05:33:31.300Z,16.35
2018-05-25T05:34:32.718Z,16.38
2018-05-25T05:35:31.097Z,16.43
2018-05-25T05:36:31.639Z,16.47
2018-05-25T05:37:53.635Z,16.50
2018-05-25T05:38:54.728Z,16.53
2018-05-25T05:39:54.377Z,16.49
2018-05-25T05:40:54.190Z,16.43
2018-05-25T05:41:54.240Z,16.41
2018-05-25T05:42:54.100Z,16.41
2018-05-25T05:43:53.725Z,16.42
2018-05-25T05:44:53.504Z,16.42
2018-05-25T05:46:16.036Z,16.42
2018-05-25T05:47:37.096Z,16.41
2018-05-25T05:48:37.727Z,16.42
2018-05-25T05:49:37.488Z,16.42
2018-05-25T05:50:37.118Z,16.39
2018-05-25T05:52:22.348Z,16.35
2018-05-25T05:53:23.882Z,16.33
2018-05-25T05:54:22.723Z,16.29
2018-05-25T05:55:44.688Z,16.29
2018-05-25T05:56:45.250Z,16.28
2018-05-25T05:57:45.165Z,16.26
2018-05-25T05:58:44.923Z,16.26
2018-05-25T05:59:45.339Z,16.26
2018-05-25T06:01:06.857Z,16.24
2018-05-25T06:02:07.683Z,16.28
2018-05-25T06:03:07.589Z,16.33
2018-05-25T06:04:08.069Z,16.36
2018-05-25T06:05:07.055Z,16.38
2018-05-25T06:06:08.273Z,16.39
2018-05-25T06:07:07.025Z,16.41
2018-05-25T06:08:06.751Z,16.41
2018-05-25T06:09:07.481Z,16.43
2018-05-25T06:10:07.403Z,16.39
2018-05-25T06:11:06.875Z,16.43
2018-05-25T06:12:07.764Z,16.49
2018-05-25T06:13:07.449Z,16.56
2018-05-25T06:14:07.897Z,16.61
2018-05-25T06:15:07.899Z,16.61
2018-05-25T06:16:07.192Z,16.65
2018-05-25T06:17:07.081Z,16.64
2018-05-25T06:18:28.029Z,16.66
2018-05-25T06:19:28.453Z,16.68
2018-05-25T06:21:11.942Z,16.71
2018-05-25T06:22:11.900Z,16.74
2018-05-25T06:23:11.703Z,16.68
2018-05-25T06:24:12.321Z,16.68
2018-05-25T06:25:11.986Z,16.68
2018-05-25T06:26:11.725Z,16.71
2018-05-25T06:27:11.713Z,16.69
2018-05-25T06:28:35.170Z,16.64
2018-05-25T06:29:35.717Z,16.66
2018-05-25T06:30:35.145Z,16.66
2018-05-25T06:31:35.866Z,16.71
2018-05-25T06:32:35.733Z,16.72
2018-05-25T06:33:36.456Z,16.74
2018-05-25T06:34:58.483Z,16.74
2018-05-25T06:35:58.017Z,16.78
2018-05-25T06:36:57.774Z,16.84
2018-05-25T06:38:41.545Z,16.93
2018-05-25T06:39:42.391Z,17.04
2018-05-25T06:41:03.514Z,17.15
2018-05-25T06:42:04.108Z,17.20
2018-05-25T06:43:04.079Z,17.26
2018-05-25T06:44:04.180Z,17.33
2018-05-25T06:45:05.068Z,17.36
2018-05-25T06:46:04.059Z,17.36
2018-05-25T06:47:03.673Z,17.33
2018-05-25T06:48:03.331Z,17.34
2018-05-25T06:49:25.125Z,17.45
2018-05-25T06:50:26.098Z,17.51
2018-05-25T06:51:25.717Z,17.48
2018-05-25T06:52:49.376Z,17.48
2018-05-25T06:53:50.097Z,17.52
2018-05-25T06:54:50.056Z,17.59
2018-05-25T06:55:49.820Z,17.60
2018-05-25T06:56:49.776Z,17.68
2018-05-25T06:57:49.867Z,17.78
2018-05-25T06:58:49.436Z,17.80
2018-05-25T06:59:49.932Z,17.85
2018-05-25T07:00:49.799Z,17.85
2018-05-25T07:01:49.396Z,17.92
2018-05-25T07:02:50.207Z,18.00
2018-05-25T07:03:50.029Z,18.16
2018-05-25T07:04:49.741Z,18.35
2018-05-25T07:05:49.326Z,18.47
2018-05-25T07:06:50.279Z,18.60
2018-05-25T07:07:50.035Z,18.73
2018-05-25T07:08:50.010Z,18.71
2018-05-25T07:09:49.851Z,18.75
2018-05-25T07:10:49.922Z,18.98
2018-05-25T07:11:49.663Z,18.98
2018-05-25T07:12:49.664Z,18.96
2018-05-25T07:14:11.038Z,19.08
2018-05-25T07:15:11.524Z,19.21
2018-05-25T07:16:33.014Z,19.26
2018-05-25T07:17:34.065Z,19.29
2018-05-25T07:18:33.975Z,19.33
2018-05-25T07:19:33.842Z,19.29
2018-05-25T07:20:33.676Z,19.39
2018-05-25T07:21:33.478Z,19.41
2018-05-25T07:22:33.517Z,19.52
2018-05-25T07:23:33.590Z,19.63
2018-05-25T07:24:33.803Z,19.70
2018-05-25T07:25:33.775Z,19.86
2018-05-25T07:26:33.646Z,19.95
2018-05-25T07:27:34.200Z,20.04
2018-05-25T07:28:33.729Z,20.14
2018-05-25T07:29:33.735Z,20.39
2018-05-25T07:30:33.357Z,20.87
2018-05-25T07:31:32.965Z,21.32
2018-05-25T07:32:34.028Z,21.43
2018-05-25T07:33:33.897Z,21.66
2018-05-25T07:34:33.773Z,22.04
2018-05-25T07:35:33.278Z,22.45
2018-05-25T07:36:33.652Z,22.87
2018-05-25T07:37:33.519Z,23.32
2018-05-25T07:38:33.590Z,23.43
2018-05-25T07:39:33.637Z,23.61
2018-05-25T07:40:33.404Z,23.56
2018-05-25T07:41:56.239Z,23.76
2018-05-25T07:42:56.939Z,23.88
2018-05-25T07:43:57.268Z,23.92
2018-05-25T07:44:56.753Z,23.96
2018-05-25T07:45:56.817Z,23.99
2018-05-25T07:46:57.712Z,24.01
2018-05-25T07:48:17.493Z,23.86
2018-05-25T07:49:17.998Z,23.91
2018-05-25T07:50:17.974Z,23.96
2018-05-25T07:51:18.810Z,23.96
2018-05-25T07:52:18.564Z,24.02
2018-05-25T07:53:18.325Z,24.29
2018-05-25T07:54:19.052Z,24.65
2018-05-25T07:55:18.294Z,25.03
2018-05-25T07:56:18.385Z,25.36
2018-05-25T07:57:18.465Z,25.66
2018-05-25T07:58:17.958Z,26.00
2018-05-25T07:59:17.821Z,26.29
2018-05-25T08:00:19.567Z,26.22
2018-05-25T08:01:19.134Z,26.05
2018-05-25T08:02:18.562Z,26.28
2018-05-25T08:03:18.534Z,26.58
2018-05-25T08:04:18.506Z,26.63
2018-05-25T08:05:18.053Z,26.75
2018-05-25T08:06:17.971Z,27.00
2018-05-25T08:07:17.949Z,27.42
2018-05-25T08:08:18.275Z,27.87
2018-05-25T08:09:18.500Z,27.85
2018-05-25T08:10:18.153Z,28.20
2018-05-25T08:11:18.173Z,28.04
2018-05-25T08:12:17.715Z,27.54
2018-05-25T08:13:18.977Z,27.12
2018-05-25T08:14:18.530Z,27.40
2018-05-25T08:15:18.252Z,27.59
2018-05-25T08:16:19.111Z,28.05
2018-05-25T08:17:17.850Z,27.87
2018-05-25T08:18:18.405Z,27.52
2018-05-25T08:19:39.535Z,28.05
2018-05-25T08:20:40.148Z,28.37
2018-05-25T08:21:39.847Z,28.33
2018-05-25T08:22:39.839Z,27.93
2018-05-25T08:23:40.530Z,27.65
2018-05-25T08:25:24.077Z,27.96
2018-05-25T08:26:48.315Z,27.86
2018-05-25T08:27:47.951Z,27.71
2018-05-25T08:28:48.028Z,27.27
2018-05-25T08:29:47.518Z,27.02
2018-05-25T08:30:48.097Z,26.80
2018-05-25T08:31:48.687Z,26.75
2018-05-25T08:32:48.521Z,26.80
2018-05-25T08:33:48.436Z,26.95
2018-05-25T08:34:48.193Z,26.58
2018-05-25T08:35:48.169Z,26.44
2018-05-25T08:36:47.653Z,26.26
2018-05-25T08:37:48.551Z,26.23
2018-05-25T08:38:48.175Z,26.56
2018-05-25T08:39:47.931Z,26.40
2018-05-25T08:40:49.983Z,26.44
2018-05-25T08:41:47.875Z,26.37
2018-05-25T08:43:08.609Z,26.29
2018-05-25T08:44:09.705Z,26.05
2018-05-25T08:45:09.376Z,25.84
2018-05-25T08:46:08.973Z,25.58
2018-05-25T08:47:08.699Z,25.44
2018-05-25T08:48:09.332Z,25.46
2018-05-25T08:49:09.001Z,25.26
2018-05-25T08:50:08.776Z,25.14
2018-05-25T08:51:31.281Z,24.96
2018-05-25T08:52:53.682Z,24.92
2018-05-25T08:53:54.371Z,24.86
2018-05-25T08:54:54.343Z,24.84
2018-05-25T08:55:53.902Z,24.78
2018-05-25T08:56:53.877Z,24.61
2018-05-25T08:58:17.180Z,24.55
2018-05-25T08:59:39.719Z,24.45
2018-05-25T09:00:39.511Z,24.47
2018-05-25T09:01:40.485Z,24.57
2018-05-25T09:02:41.453Z,24.63
2018-05-25T09:03:39.393Z,24.73
2018-05-25T09:04:40.097Z,24.70
2018-05-25T09:05:39.672Z,24.54
2018-05-25T09:06:39.482Z,24.43
2018-05-25T09:07:39.280Z,24.30
2018-05-25T09:08:40.077Z,24.10
2018-05-25T09:09:39.803Z,24.13
2018-05-25T09:10:39.341Z,24.11
2018-05-25T09:12:23.791Z,24.16
2018-05-25T09:13:25.309Z,24.20
2018-05-25T09:14:24.487Z,24.03
2018-05-25T09:15:24.323Z,24.01
2018-05-25T09:16:24.335Z,23.86
2018-05-25T09:17:24.475Z,23.71
2018-05-25T09:18:24.104Z,23.80
2018-05-25T09:19:47.259Z,23.95
2018-05-25T09:20:47.766Z,24.05
2018-05-25T09:21:47.578Z,23.92
2018-05-25T09:22:47.139Z,23.77
2018-05-25T09:23:47.972Z,23.66
2018-05-25T09:24:47.757Z,23.66
2018-05-25T09:25:47.331Z,23.71
2018-05-25T09:26:47.090Z,23.77
2018-05-25T09:27:47.833Z,23.84
2018-05-25T09:28:47.533Z,23.87
2018-05-25T09:30:08.657Z,24.05
2018-05-25T09:31:09.289Z,23.88
2018-05-25T09:32:09.209Z,24.01
2018-05-25T09:33:09.095Z,23.91
2018-05-25T09:34:08.961Z,24.01
2018-05-25T09:35:09.922Z,24.11
2018-05-25T09:36:09.968Z,24.20
2018-05-25T09:37:09.853Z,24.16
2018-05-25T09:38:31.822Z,24.05
2018-05-25T09:39:32.614Z,24.03
2018-05-25T09:40:32.230Z,24.01
2018-05-25T09:41:32.042Z,24.05
2018-05-25T09:42:32.019Z,23.99
2018-05-25T09:43:32.534Z,24.02
2018-05-25T09:44:32.325Z,24.05
2018-05-25T09:45:32.129Z,23.96
2018-05-25T09:46:31.826Z,23.95
2018-05-25T09:47:31.880Z,24.08
2018-05-25T09:48:31.884Z,24.17
2018-05-25T09:49:32.621Z,24.21
2018-05-25T09:51:15.249Z,24.13
2018-05-25T09:52:15.663Z,24.13
2018-05-25T09:53:15.750Z,24.20
2018-05-25T09:54:15.406Z,24.28
2018-05-25T09:55:15.959Z,24.28
2018-05-25T09:56:37.292Z,24.38
2018-05-25T09:57:37.904Z,24.35
2018-05-25T09:58:37.553Z,24.28
2018-05-25T09:59:37.303Z,24.20
2018-05-25T10:00:38.171Z,24.18
2018-05-25T10:01:59.449Z,24.29
2018-05-25T10:03:23.973Z,24.43
2018-05-25T10:04:24.746Z,24.50
2018-05-25T10:05:25.468Z,24.65
2018-05-25T10:06:46.366Z,24.89
2018-05-25T10:07:46.059Z,25.25
2018-05-25T10:08:46.383Z,25.63
2018-05-25T10:09:46.384Z,25.88
2018-05-25T10:10:46.944Z,26.00
2018-05-25T10:11:46.705Z,25.96
2018-05-25T10:12:46.197Z,26.21
2018-05-25T10:13:45.797Z,26.90
2018-05-25T10:14:46.906Z,27.48
2018-05-25T10:15:46.541Z,27.98
2018-05-25T10:16:46.444Z,27.86
2018-05-25T10:18:07.500Z,27.82
2018-05-25T10:19:08.195Z,27.70
2018-05-25T10:20:08.196Z,27.64
2018-05-25T10:21:29.749Z,27.78
2018-05-25T10:22:53.872Z,27.83
2018-05-25T10:23:55.793Z,27.74
2018-05-25T10:24:54.750Z,27.67
2018-05-25T10:25:54.335Z,27.42
2018-05-25T10:26:53.955Z,27.15
2018-05-25T10:27:54.909Z,27.25
2018-05-25T10:28:54.879Z,27.60
2018-05-25T10:30:17.141Z,28.12
2018-05-25T10:31:17.219Z,28.20
2018-05-25T10:32:17.086Z,28.19
2018-05-25T10:33:16.725Z,28.14
2018-05-25T10:34:16.303Z,28.37
2018-05-25T10:35:19.014Z,28.52
2018-05-25T10:36:16.778Z,28.66
2018-05-25T10:37:16.782Z,28.75
2018-05-25T10:38:16.815Z,28.72
2018-05-25T10:39:38.291Z,28.62
2018-05-25T10:40:39.140Z,28.69
2018-05-25T10:41:39.200Z,28.91
2018-05-25T10:42:39.915Z,28.82
2018-05-25T10:44:00.780Z,28.72
2018-05-25T10:45:23.409Z,28.74
2018-05-25T10:46:24.203Z,29.04
2018-05-25T10:47:24.146Z,29.22
2018-05-25T10:48:23.635Z,29.05
2018-05-25T10:49:24.404Z,28.89
2018-05-25T10:50:24.242Z,28.79
2018-05-25T10:51:23.999Z,28.79
2018-05-25T10:52:23.670Z,28.74
2018-05-25T10:53:24.487Z,28.51
2018-05-25T10:54:24.513Z,28.22
2018-05-25T10:55:24.414Z,28.08
2018-05-25T10:56:24.378Z,27.90
2018-05-25T10:57:24.525Z,27.80
2018-05-25T10:58:24.414Z,27.60
2018-05-25T10:59:24.501Z,27.47
2018-05-25T11:00:24.547Z,27.47
2018-05-25T11:01:24.554Z,27.45
2018-05-25T11:02:24.420Z,27.40
2018-05-25T11:03:24.862Z,27.42
2018-05-25T11:04:23.662Z,27.48
2018-05-25T11:05:23.414Z,27.44
2018-05-25T11:06:24.210Z,27.52
2018-05-25T11:08:29.679Z,27.42
2018-05-25T11:09:30.345Z,27.65
2018-05-25T11:10:30.378Z,27.85
2018-05-25T11:11:30.386Z,27.83
2018-05-25T11:12:30.290Z,28.00
2018-05-25T11:13:30.570Z,28.39
2018-05-25T11:14:31.197Z,28.86
2018-05-25T11:15:30.789Z,29.13
2018-05-25T11:16:52.819Z,29.95
2018-05-25T11:17:53.728Z,30.62
2018-05-25T11:18:53.306Z,30.77
2018-05-25T11:19:54.398Z,30.85
2018-05-25T11:20:53.379Z,31.07
2018-05-25T11:21:53.235Z,31.10
2018-05-25T11:23:16.919Z,31.07
2018-05-25T11:24:17.471Z,30.97
2018-05-25T11:25:17.426Z,30.83
2018-05-25T11:26:39.193Z,30.16
2018-05-25T11:28:03.704Z,29.88
2018-05-25T11:29:03.849Z,29.66
2018-05-25T11:30:02.925Z,29.42
2018-05-25T11:31:02.907Z,29.17
2018-05-25T11:32:03.087Z,29.31
2018-05-25T11:33:02.850Z,29.73
2018-05-25T11:34:26.793Z,29.82
2018-05-25T11:35:27.853Z,29.72
2018-05-25T11:36:27.657Z,29.60
2018-05-25T11:37:51.490Z,30.37
2018-05-25T11:38:52.067Z,30.85
2018-05-25T11:39:51.886Z,31.39
2018-05-25T11:40:52.158Z,31.28
2018-05-25T11:42:13.625Z,31.28
2018-05-25T11:43:13.697Z,31.15
2018-05-25T11:44:35.525Z,31.17
2018-05-25T11:46:00.386Z,31.02
2018-05-25T11:47:01.198Z,31.37
2018-05-25T11:48:00.929Z,31.62
2018-05-25T11:49:22.481Z,31.81
2018-05-25T11:50:23.145Z,32.03
2018-05-25T11:51:22.800Z,32.21
2018-05-25T11:52:22.644Z,32.22
2018-05-25T11:53:23.203Z,31.90
2018-05-25T11:54:23.257Z,31.99
2018-05-25T11:55:22.879Z,32.18
2018-05-25T11:56:44.033Z,32.70
2018-05-25T11:57:44.927Z,32.93
2018-05-25T11:58:44.595Z,33.08
2018-05-25T11:59:44.381Z,32.93
2018-05-25T12:00:44.437Z,33.00
2018-05-25T12:01:45.051Z,33.45
2018-05-25T12:02:45.276Z,33.24
2018-05-25T12:03:45.437Z,33.15
2018-05-25T12:04:44.494Z,32.89
2018-05-25T12:05:44.571Z,32.58
2018-05-25T12:06:44.546Z,32.31
2018-05-25T12:08:06.291Z,32.04
2018-05-25T12:09:06.535Z,31.90
2018-05-25T12:10:06.600Z,31.40
2018-05-25T12:11:06.488Z,30.83
2018-05-25T12:12:06.557Z,30.51
2018-05-25T12:13:07.265Z,30.25
2018-05-25T12:14:06.987Z,29.88
2018-05-25T12:15:07.353Z,29.61
2018-05-25T12:16:50.481Z,29.04
2018-05-25T12:17:52.071Z,28.94
2018-05-25T12:18:51.353Z,28.98
2018-05-25T12:19:50.883Z,29.20
2018-05-25T12:20:50.919Z,29.13
2018-05-25T12:21:51.469Z,29.07
2018-05-25T12:22:52.091Z,29.24
2018-05-25T12:23:51.011Z,28.86
2018-05-25T12:24:50.946Z,28.75
2018-05-25T12:25:51.191Z,28.56
2018-05-25T12:26:51.934Z,28.59
2018-05-25T12:27:51.138Z,28.59
2018-05-25T12:28:50.989Z,29.27
2018-05-25T12:29:50.973Z,29.34
2018-05-25T12:30:50.708Z,29.63
2018-05-25T12:32:13.318Z,30.54
2018-05-25T12:33:13.533Z,30.61
2018-05-25T12:34:13.229Z,30.73
2018-05-25T12:35:13.454Z,30.72
2018-05-25T12:36:13.345Z,30.81
2018-05-25T12:37:35.946Z,30.85
2018-05-25T12:38:35.969Z,30.53
2018-05-25T12:39:36.888Z,30.10
2018-05-25T12:40:35.926Z,29.82
2018-05-25T12:41:35.904Z,29.81
2018-05-25T12:42:57.247Z,29.88
2018-05-25T12:43:58.309Z,30.81
2018-05-25T12:46:24.032Z,30.84
2018-05-25T12:47:25.713Z,30.51
2018-05-25T12:48:24.542Z,30.23
2018-05-25T12:49:46.232Z,30.25
2018-05-25T12:51:10.289Z,29.98
2018-05-25T12:52:09.944Z,29.84
2018-05-25T12:53:09.691Z,30.53
2018-05-25T12:54:09.811Z,30.99
2018-05-25T12:55:09.648Z,31.51
2018-05-25T12:56:10.203Z,31.81
2018-05-25T12:57:34.819Z,32.38
2018-05-25T12:58:34.753Z,32.63
2018-05-25T12:59:56.890Z,32.36
2018-05-25T13:01:19.090Z,31.78
2018-05-25T13:02:19.740Z,31.22
2018-05-25T13:03:20.386Z,30.83
2018-05-25T13:04:20.149Z,30.46
2018-05-25T13:05:21.096Z,30.02
2018-05-25T13:06:19.842Z,29.72
2018-05-25T13:07:19.929Z,29.35
2018-05-25T13:08:19.834Z,29.34
2018-05-25T13:09:19.707Z,29.31
2018-05-25T13:10:19.618Z,28.98
2018-05-25T13:11:40.643Z,28.76
2018-05-25T13:12:42.096Z,28.64
2018-05-25T13:13:41.618Z,28.63
2018-05-25T13:14:41.954Z,29.22
2018-05-25T13:15:41.231Z,29.56
2018-05-25T13:17:04.030Z,30.10
2018-05-25T13:18:04.260Z,30.37
2018-05-25T13:19:03.945Z,30.59
2018-05-25T13:20:04.189Z,30.65
2018-05-25T13:21:03.882Z,30.50
2018-05-25T13:22:03.688Z,30.25
2018-05-25T13:23:03.852Z,29.71
2018-05-25T13:24:50.835Z,28.88
2018-05-25T13:26:11.032Z,28.17
2018-05-25T13:27:32.257Z,27.54
2018-05-25T13:28:34.720Z,27.03
2018-05-25T13:29:54.572Z,26.88
2018-05-25T13:30:55.502Z,26.80
2018-05-25T13:31:57.039Z,26.65
2018-05-25T13:32:54.995Z,26.62
2018-05-25T13:33:54.999Z,26.53
2018-05-25T13:34:55.272Z,26.44
2018-05-25T13:35:55.533Z,26.33
2018-05-25T13:36:55.456Z,26.23
2018-05-25T13:37:55.216Z,26.15
2018-05-25T13:38:55.054Z,26.05
2018-05-25T13:39:55.173Z,26.02
2018-05-25T13:40:55.209Z,26.02